メインページ
METAR-TAF:

METAR-TAF

空港 :

ドバイ国際空港

ドバイ, アラブ首長国連邦

緯度: 25-15-10N, 経度: 055-21-52E, 海抜: 8m

現時点の気象観測

当レポートは31分前の01:00(UTC)に作成
変向風 6kt
気温 28°C
湿度 74%
気圧 1013 hPa
視程10km以上
1,500メートル以下は雲なし、積乱雲なし

METAR: OMDB 160100Z VRB06KT CAVOK 28/23 Q1013 NOSIG

時間: 05:31 (01:31 UTC)

予報

当レポートは2時間38分前の22:53(UTC)に作成
予報は16日の 00時(UTC)から 17日の 06時(UTC)まで有効
南/南東の風 5kt
視程: 8000m
高度2500ftの雲はほとんどない
確率 30%
16日の 01時(UTC)から 16日の 04時(UTC)まで
視程: 4000m
煙霧
16日の 07時(UTC)から 16日の 09時(UTC)まで徐々に
北西の風 13kt
確率 30% :
16日の 11時(UTC)から 16日の 15時(UTC)まで一時的に
変向風 20kt、最大35ktの突風を伴う
視程: 1500m
高度3500ftの雲はほとんどない, 塔状積雲.
風塵
16日の 16時(UTC)から 16日の 18時(UTC)まで徐々に
の風 5kt

TAF: OMDB 152253Z 1600/1706 15005KT 8000 FEW025 PROB30 1601/1604 4000 HZ BECMG 1607/1609 32013KT PROB30 TEMPO 1611/1615 VRB20G35KT 1500 BLDU FEW035TCU BECMG 1616/1618 08005KT

4,000以上の空港の気象観測と天気予報(METAR報とTAF報)

利用可能な観測所は地図上に黄色い丸と赤い丸で示す。

丸の上にカーソルを重ねると観測所名を参照できる。

次にクリックすると気象観測と天気予報を参照できる。

マップの切り替え:黒色「×」印の緑ボタンをクリックして拡大、「-」印の緑ボタンをクリックして縮小、緑色の三角印をクリックして隣りの地図に切り替え


METAR-TAF: